sensor_id;sensor_type;location;lat;lon;timestamp;P1;durP1;ratioP1;P2;durP2;ratioP2
12155;SDS011;6141;49.092;8.516;2023-07-02T00:00:40;5.20;;;4.27;;
12155;SDS011;6141;49.092;8.516;2023-07-02T00:03:08;4.43;;;3.43;;
12155;SDS011;6141;49.092;8.516;2023-07-02T00:05:37;5.87;;;3.70;;
12155;SDS011;6141;49.092;8.516;2023-07-02T00:08:05;4.83;;;3.60;;
12155;SDS011;6141;49.092;8.516;2023-07-02T00:10:34;6.13;;;4.13;;
12155;SDS011;6141;49.092;8.516;2023-07-02T00:13:03;4.33;;;3.93;;
12155;SDS011;6141;49.092;8.516;2023-07-02T00:15:31;4.30;;;3.83;;
12155;SDS011;6141;49.092;8.516;2023-07-02T00:17:59;4.30;;;3.87;;
12155;SDS011;6141;49.092;8.516;2023-07-02T00:20:28;5.03;;;4.53;;
12155;SDS011;6141;49.092;8.516;2023-07-02T00:22:56;5.77;;;3.93;;
12155;SDS011;6141;49.092;8.516;2023-07-02T00:25:24;4.13;;;3.73;;
12155;SDS011;6141;49.092;8.516;2023-07-02T00:27:52;5.37;;;4.33;;
12155;SDS011;6141;49.092;8.516;2023-07-02T00:30:22;4.77;;;4.20;;
12155;SDS011;6141;49.092;8.516;2023-07-02T00:32:50;5.67;;;3.50;;
12155;SDS011;6141;49.092;8.516;2023-07-02T00:35:18;4.30;;;3.67;;
12155;SDS011;6141;49.092;8.516;2023-07-02T00:37:46;4.67;;;4.07;;
12155;SDS011;6141;49.092;8.516;2023-07-02T00:40:14;7.30;;;3.80;;
12155;SDS011;6141;49.092;8.516;2023-07-02T00:42:42;4.20;;;3.80;;
12155;SDS011;6141;49.092;8.516;2023-07-02T00:45:10;5.27;;;3.80;;
12155;SDS011;6141;49.092;8.516;2023-07-02T00:47:40;4.87;;;3.80;;
12155;SDS011;6141;49.092;8.516;2023-07-02T00:50:09;5.03;;;4.03;;
12155;SDS011;6141;49.092;8.516;2023-07-02T00:52:38;6.07;;;3.77;;
12155;SDS011;6141;49.092;8.516;2023-07-02T00:55:06;5.90;;;3.70;;
12155;SDS011;6141;49.092;8.516;2023-07-02T00:57:35;5.60;;;3.23;;
12155;SDS011;6141;49.092;8.516;2023-07-02T01:00:03;3.90;;;3.37;;
12155;SDS011;6141;49.092;8.516;2023-07-02T01:02:35;6.20;;;3.70;;
12155;SDS011;6141;49.092;8.516;2023-07-02T01:05:06;5.60;;;4.30;;
12155;SDS011;6141;49.092;8.516;2023-07-02T01:07:34;4.97;;;3.70;;
12155;SDS011;6141;49.092;8.516;2023-07-02T01:10:03;6.13;;;3.70;;
12155;SDS011;6141;49.092;8.516;2023-07-02T01:12:31;5.77;;;4.10;;
12155;SDS011;6141;49.092;8.516;2023-07-02T01:15:02;4.93;;;4.10;;
12155;SDS011;6141;49.092;8.516;2023-07-02T01:17:32;4.20;;;3.80;;
12155;SDS011;6141;49.092;8.516;2023-07-02T01:20:08;3.90;;;3.50;;
12155;SDS011;6141;49.092;8.516;2023-07-02T01:22:37;5.10;;;3.77;;
12155;SDS011;6141;49.092;8.516;2023-07-02T01:25:06;3.63;;;3.30;;
12155;SDS011;6141;49.092;8.516;2023-07-02T01:27:35;3.70;;;3.40;;
12155;SDS011;6141;49.092;8.516;2023-07-02T01:30:06;3.93;;;3.57;;
12155;SDS011;6141;49.092;8.516;2023-07-02T01:32:37;5.03;;;3.60;;
12155;SDS011;6141;49.092;8.516;2023-07-02T01:35:05;5.47;;;3.83;;
12155;SDS011;6141;49.092;8.516;2023-07-02T01:37:35;4.13;;;3.73;;
12155;SDS011;6141;49.092;8.516;2023-07-02T01:40:05;6.97;;;3.90;;
12155;SDS011;6141;49.092;8.516;2023-07-02T01:42:35;4.97;;;3.60;;
12155;SDS011;6141;49.092;8.516;2023-07-02T01:45:03;8.23;;;4.13;;
12155;SDS011;6141;49.092;8.516;2023-07-02T01:47:32;7.03;;;3.70;;
12155;SDS011;6141;49.092;8.516;2023-07-02T01:50:00;8.23;;;3.60;;
12155;SDS011;6141;49.092;8.516;2023-07-02T01:52:30;6.73;;;3.57;;
12155;SDS011;6141;49.092;8.516;2023-07-02T01:55:00;5.50;;;3.33;;
12155;SDS011;6141;49.092;8.516;2023-07-02T01:57:30;4.20;;;3.33;;
12155;SDS011;6141;49.092;8.516;2023-07-02T02:00:00;4.67;;;3.17;;
12155;SDS011;6141;49.092;8.516;2023-07-02T02:02:40;6.00;;;3.40;;
12155;SDS011;6141;49.092;8.516;2023-07-02T02:05:09;4.50;;;3.03;;
12155;SDS011;6141;49.092;8.516;2023-07-02T02:07:39;5.87;;;3.70;;
12155;SDS011;6141;49.092;8.516;2023-07-02T02:10:07;8.87;;;3.77;;
12155;SDS011;6141;49.092;8.516;2023-07-02T02:12:36;5.93;;;3.20;;
12155;SDS011;6141;49.092;8.516;2023-07-02T02:15:06;5.23;;;3.47;;
12155;SDS011;6141;49.092;8.516;2023-07-02T02:17:34;4.10;;;3.50;;
12155;SDS011;6141;49.092;8.516;2023-07-02T02:20:04;7.33;;;3.67;;
12155;SDS011;6141;49.092;8.516;2023-07-02T02:22:34;8.70;;;3.77;;
12155;SDS011;6141;49.092;8.516;2023-07-02T02:25:05;6.23;;;3.63;;
12155;SDS011;6141;49.092;8.516;2023-07-02T02:27:34;5.80;;;3.73;;
12155;SDS011;6141;49.092;8.516;2023-07-02T02:30:02;6.17;;;4.40;;
12155;SDS011;6141;49.092;8.516;2023-07-02T02:32:33;6.43;;;4.73;;
12155;SDS011;6141;49.092;8.516;2023-07-02T02:35:01;10.70;;;5.00;;
12155;SDS011;6141;49.092;8.516;2023-07-02T02:37:32;8.97;;;4.97;;
12155;SDS011;6141;49.092;8.516;2023-07-02T02:40:02;7.20;;;4.93;;
12155;SDS011;6141;49.092;8.516;2023-07-02T02:42:33;13.13;;;5.43;;
12155;SDS011;6141;49.092;8.516;2023-07-02T02:45:03;9.57;;;5.20;;
12155;SDS011;6141;49.092;8.516;2023-07-02T02:47:32;8.27;;;4.53;;
12155;SDS011;6141;49.092;8.516;2023-07-02T02:50:01;9.70;;;4.77;;
12155;SDS011;6141;49.092;8.516;2023-07-02T02:52:30;5.37;;;4.47;;
12155;SDS011;6141;49.092;8.516;2023-07-02T02:54:58;6.80;;;4.53;;
12155;SDS011;6141;49.092;8.516;2023-07-02T02:57:26;6.87;;;5.00;;
12155;SDS011;6141;49.092;8.516;2023-07-02T02:59:56;6.33;;;4.60;;
12155;SDS011;6141;49.092;8.516;2023-07-02T03:02:24;8.10;;;4.57;;
12155;SDS011;6141;49.092;8.516;2023-07-02T03:04:52;5.67;;;4.20;;
12155;SDS011;6141;49.092;8.516;2023-07-02T03:07:20;4.13;;;3.73;;
12155;SDS011;6141;49.092;8.516;2023-07-02T03:09:48;10.17;;;4.47;;
12155;SDS011;6141;49.092;8.516;2023-07-02T03:12:16;4.93;;;3.87;;
12155;SDS011;6141;49.092;8.516;2023-07-02T03:14:44;7.13;;;4.03;;
12155;SDS011;6141;49.092;8.516;2023-07-02T03:17:15;7.37;;;4.73;;
12155;SDS011;6141;49.092;8.516;2023-07-02T03:19:43;5.97;;;3.70;;
12155;SDS011;6141;49.092;8.516;2023-07-02T03:22:11;6.93;;;4.07;;
12155;SDS011;6141;49.092;8.516;2023-07-02T03:24:39;5.47;;;3.97;;
12155;SDS011;6141;49.092;8.516;2023-07-02T03:27:07;7.00;;;3.73;;
12155;SDS011;6141;49.092;8.516;2023-07-02T03:29:36;7.47;;;4.00;;
12155;SDS011;6141;49.092;8.516;2023-07-02T03:32:05;7.53;;;3.93;;
12155;SDS011;6141;49.092;8.516;2023-07-02T03:34:34;9.20;;;4.13;;
12155;SDS011;6141;49.092;8.516;2023-07-02T03:37:03;8.67;;;4.30;;
12155;SDS011;6141;49.092;8.516;2023-07-02T03:39:31;6.77;;;3.53;;
12155;SDS011;6141;49.092;8.516;2023-07-02T03:41:59;7.37;;;3.63;;
12155;SDS011;6141;49.092;8.516;2023-07-02T03:44:27;5.87;;;3.47;;
12155;SDS011;6141;49.092;8.516;2023-07-02T03:46:55;7.33;;;3.70;;
12155;SDS011;6141;49.092;8.516;2023-07-02T03:49:23;6.83;;;3.83;;
12155;SDS011;6141;49.092;8.516;2023-07-02T03:51:52;6.93;;;3.57;;
12155;SDS011;6141;49.092;8.516;2023-07-02T03:54:20;4.43;;;3.60;;
12155;SDS011;6141;49.092;8.516;2023-07-02T03:56:48;5.93;;;3.40;;
12155;SDS011;6141;49.092;8.516;2023-07-02T03:59:16;4.90;;;3.20;;
12155;SDS011;6141;49.092;8.516;2023-07-02T04:01:44;5.73;;;3.40;;
12155;SDS011;6141;49.092;8.516;2023-07-02T04:04:12;5.67;;;3.60;;
12155;SDS011;6141;49.092;8.516;2023-07-02T04:06:41;5.57;;;3.17;;
12155;SDS011;6141;49.092;8.516;2023-07-02T04:09:10;6.13;;;3.23;;
12155;SDS011;6141;49.092;8.516;2023-07-02T04:11:40;5.80;;;3.40;;
12155;SDS011;6141;49.092;8.516;2023-07-02T04:15:46;10.93;;;3.87;;
12155;SDS011;6141;49.092;8.516;2023-07-02T04:18:15;5.87;;;3.40;;
12155;SDS011;6141;49.092;8.516;2023-07-02T04:20:43;4.83;;;3.37;;
12155;SDS011;6141;49.092;8.516;2023-07-02T04:23:11;4.17;;;3.40;;
12155;SDS011;6141;49.092;8.516;2023-07-02T04:25:41;6.40;;;4.10;;
12155;SDS011;6141;49.092;8.516;2023-07-02T04:28:29;6.50;;;3.63;;
12155;SDS011;6141;49.092;8.516;2023-07-02T04:30:57;5.27;;;3.67;;
12155;SDS011;6141;49.092;8.516;2023-07-02T04:33:26;6.30;;;3.50;;
12155;SDS011;6141;49.092;8.516;2023-07-02T04:36:02;7.77;;;3.80;;
12155;SDS011;6141;49.092;8.516;2023-07-02T04:38:30;5.37;;;3.77;;
12155;SDS011;6141;49.092;8.516;2023-07-02T04:41:00;6.20;;;4.13;;
12155;SDS011;6141;49.092;8.516;2023-07-02T04:43:31;7.40;;;4.27;;
12155;SDS011;6141;49.092;8.516;2023-07-02T04:46:00;7.83;;;4.27;;
12155;SDS011;6141;49.092;8.516;2023-07-02T04:48:29;6.70;;;3.83;;
12155;SDS011;6141;49.092;8.516;2023-07-02T04:50:57;7.53;;;4.20;;
12155;SDS011;6141;49.092;8.516;2023-07-02T04:53:25;5.90;;;3.80;;
12155;SDS011;6141;49.092;8.516;2023-07-02T04:55:53;5.77;;;3.97;;
12155;SDS011;6141;49.092;8.516;2023-07-02T04:58:24;7.03;;;4.33;;
12155;SDS011;6141;49.092;8.516;2023-07-02T05:00:52;9.60;;;4.77;;
12155;SDS011;6141;49.092;8.516;2023-07-02T05:03:20;9.03;;;5.07;;
12155;SDS011;6141;49.092;8.516;2023-07-02T05:05:49;8.33;;;4.97;;
12155;SDS011;6141;49.092;8.516;2023-07-02T05:08:17;8.43;;;6.00;;
12155;SDS011;6141;49.092;8.516;2023-07-02T05:10:45;9.90;;;6.07;;
12155;SDS011;6141;49.092;8.516;2023-07-02T05:13:13;11.67;;;7.10;;
12155;SDS011;6141;49.092;8.516;2023-07-02T05:15:43;11.73;;;6.57;;
12155;SDS011;6141;49.092;8.516;2023-07-02T05:18:11;18.17;;;6.90;;
12155;SDS011;6141;49.092;8.516;2023-07-02T05:20:40;11.77;;;6.90;;
12155;SDS011;6141;49.092;8.516;2023-07-02T05:23:08;11.73;;;6.77;;
12155;SDS011;6141;49.092;8.516;2023-07-02T05:25:36;12.93;;;6.80;;
12155;SDS011;6141;49.092;8.516;2023-07-02T05:28:04;9.80;;;6.50;;
12155;SDS011;6141;49.092;8.516;2023-07-02T05:30:32;11.33;;;6.80;;
12155;SDS011;6141;49.092;8.516;2023-07-02T05:33:02;12.20;;;6.90;;
12155;SDS011;6141;49.092;8.516;2023-07-02T05:35:30;9.10;;;6.47;;
12155;SDS011;6141;49.092;8.516;2023-07-02T05:37:58;12.13;;;6.53;;
12155;SDS011;6141;49.092;8.516;2023-07-02T05:40:26;11.90;;;6.63;;
12155;SDS011;6141;49.092;8.516;2023-07-02T05:42:54;10.57;;;6.43;;
12155;SDS011;6141;49.092;8.516;2023-07-02T05:45:22;10.43;;;6.77;;
12155;SDS011;6141;49.092;8.516;2023-07-02T05:47:50;13.30;;;6.80;;
12155;SDS011;6141;49.092;8.516;2023-07-02T05:50:20;12.87;;;6.80;;
12155;SDS011;6141;49.092;8.516;2023-07-02T05:52:48;10.50;;;6.67;;
12155;SDS011;6141;49.092;8.516;2023-07-02T05:55:16;10.60;;;6.40;;
12155;SDS011;6141;49.092;8.516;2023-07-02T05:57:44;11.17;;;7.30;;
12155;SDS011;6141;49.092;8.516;2023-07-02T06:00:13;11.90;;;6.90;;
12155;SDS011;6141;49.092;8.516;2023-07-02T06:02:45;10.57;;;7.60;;
12155;SDS011;6141;49.092;8.516;2023-07-02T06:05:14;9.97;;;6.70;;
12155;SDS011;6141;49.092;8.516;2023-07-02T06:07:43;11.30;;;6.90;;
12155;SDS011;6141;49.092;8.516;2023-07-02T06:10:11;13.63;;;7.53;;
12155;SDS011;6141;49.092;8.516;2023-07-02T06:12:40;10.77;;;6.80;;
12155;SDS011;6141;49.092;8.516;2023-07-02T06:15:09;12.77;;;7.27;;
12155;SDS011;6141;49.092;8.516;2023-07-02T06:17:38;12.37;;;8.00;;
12155;SDS011;6141;49.092;8.516;2023-07-02T06:20:06;10.63;;;7.00;;
12155;SDS011;6141;49.092;8.516;2023-07-02T06:22:35;9.50;;;7.00;;
12155;SDS011;6141;49.092;8.516;2023-07-02T06:25:05;11.37;;;7.17;;
12155;SDS011;6141;49.092;8.516;2023-07-02T06:27:33;10.73;;;6.50;;
12155;SDS011;6141;49.092;8.516;2023-07-02T06:30:02;10.43;;;6.87;;
12155;SDS011;6141;49.092;8.516;2023-07-02T06:32:30;9.77;;;5.90;;
12155;SDS011;6141;49.092;8.516;2023-07-02T06:34:58;14.60;;;6.70;;
12155;SDS011;6141;49.092;8.516;2023-07-02T06:37:26;10.47;;;5.83;;
12155;SDS011;6141;49.092;8.516;2023-07-02T06:39:54;10.67;;;6.13;;
12155;SDS011;6141;49.092;8.516;2023-07-02T06:42:24;10.47;;;5.83;;
12155;SDS011;6141;49.092;8.516;2023-07-02T06:44:53;8.63;;;5.50;;
12155;SDS011;6141;49.092;8.516;2023-07-02T06:47:21;10.03;;;5.77;;
12155;SDS011;6141;49.092;8.516;2023-07-02T06:49:51;10.30;;;5.73;;
12155;SDS011;6141;49.092;8.516;2023-07-02T06:52:19;10.70;;;6.90;;
12155;SDS011;6141;49.092;8.516;2023-07-02T06:54:47;11.80;;;6.50;;
12155;SDS011;6141;49.092;8.516;2023-07-02T06:57:16;13.33;;;7.37;;
12155;SDS011;6141;49.092;8.516;2023-07-02T06:59:45;11.23;;;7.40;;
12155;SDS011;6141;49.092;8.516;2023-07-02T07:02:16;13.00;;;8.10;;
12155;SDS011;6141;49.092;8.516;2023-07-02T07:04:44;14.13;;;8.93;;
12155;SDS011;6141;49.092;8.516;2023-07-02T07:07:12;13.03;;;7.80;;
12155;SDS011;6141;49.092;8.516;2023-07-02T07:09:40;14.43;;;8.37;;
12155;SDS011;6141;49.092;8.516;2023-07-02T07:12:08;10.63;;;8.00;;
12155;SDS011;6141;49.092;8.516;2023-07-02T07:14:37;13.13;;;9.43;;
12155;SDS011;6141;49.092;8.516;2023-07-02T07:17:06;15.33;;;10.07;;
12155;SDS011;6141;49.092;8.516;2023-07-02T07:19:35;16.33;;;10.30;;
12155;SDS011;6141;49.092;8.516;2023-07-02T07:22:04;14.93;;;9.23;;
12155;SDS011;6141;49.092;8.516;2023-07-02T07:24:32;15.27;;;10.70;;
12155;SDS011;6141;49.092;8.516;2023-07-02T07:27:00;14.30;;;10.30;;
12155;SDS011;6141;49.092;8.516;2023-07-02T07:29:28;13.37;;;9.90;;
12155;SDS011;6141;49.092;8.516;2023-07-02T07:31:56;17.93;;;10.40;;
12155;SDS011;6141;49.092;8.516;2023-07-02T07:34:26;14.53;;;10.30;;
12155;SDS011;6141;49.092;8.516;2023-07-02T07:36:54;18.20;;;10.53;;
12155;SDS011;6141;49.092;8.516;2023-07-02T07:39:22;14.10;;;10.30;;
12155;SDS011;6141;49.092;8.516;2023-07-02T07:41:50;16.07;;;10.90;;
12155;SDS011;6141;49.092;8.516;2023-07-02T07:44:18;18.83;;;11.73;;
12155;SDS011;6141;49.092;8.516;2023-07-02T07:46:46;16.97;;;11.77;;
12155;SDS011;6141;49.092;8.516;2023-07-02T07:49:14;19.07;;;11.83;;
12155;SDS011;6141;49.092;8.516;2023-07-02T07:51:43;17.83;;;11.03;;
12155;SDS011;6141;49.092;8.516;2023-07-02T07:54:11;17.07;;;12.20;;
12155;SDS011;6141;49.092;8.516;2023-07-02T07:56:39;17.70;;;11.83;;
12155;SDS011;6141;49.092;8.516;2023-07-02T07:59:08;19.67;;;13.47;;
12155;SDS011;6141;49.092;8.516;2023-07-02T08:01:37;20.60;;;13.70;;
12155;SDS011;6141;49.092;8.516;2023-07-02T08:04:05;18.70;;;12.40;;
12155;SDS011;6141;49.092;8.516;2023-07-02T08:06:33;18.13;;;12.57;;
12155;SDS011;6141;49.092;8.516;2023-07-02T08:09:03;17.63;;;12.77;;
12155;SDS011;6141;49.092;8.516;2023-07-02T08:11:31;19.00;;;13.37;;
12155;SDS011;6141;49.092;8.516;2023-07-02T08:14:00;19.27;;;13.33;;
12155;SDS011;6141;49.092;8.516;2023-07-02T08:16:28;20.13;;;14.27;;
12155;SDS011;6141;49.092;8.516;2023-07-02T08:18:56;22.27;;;14.63;;
12155;SDS011;6141;49.092;8.516;2023-07-02T08:21:24;22.33;;;13.77;;
12155;SDS011;6141;49.092;8.516;2023-07-02T08:23:52;22.83;;;14.63;;
12155;SDS011;6141;49.092;8.516;2023-07-02T08:26:22;23.27;;;14.30;;
12155;SDS011;6141;49.092;8.516;2023-07-02T08:28:50;20.93;;;13.73;;
12155;SDS011;6141;49.092;8.516;2023-07-02T08:31:18;27.63;;;14.97;;
12155;SDS011;6141;49.092;8.516;2023-07-02T08:33:46;20.97;;;13.63;;
12155;SDS011;6141;49.092;8.516;2023-07-02T08:36:14;47.77;;;15.43;;
12155;SDS011;6141;49.092;8.516;2023-07-02T08:38:42;19.40;;;14.27;;
12155;SDS011;6141;49.092;8.516;2023-07-02T08:41:11;21.77;;;14.53;;
12155;SDS011;6141;49.092;8.516;2023-07-02T08:43:41;22.23;;;14.83;;
12155;SDS011;6141;49.092;8.516;2023-07-02T08:46:10;24.77;;;16.13;;
12155;SDS011;6141;49.092;8.516;2023-07-02T08:48:39;24.43;;;16.00;;
12155;SDS011;6141;49.092;8.516;2023-07-02T08:51:07;22.57;;;15.10;;
12155;SDS011;6141;49.092;8.516;2023-07-02T08:53:35;23.07;;;15.77;;
12155;SDS011;6141;49.092;8.516;2023-07-02T08:56:03;24.77;;;16.23;;
12155;SDS011;6141;49.092;8.516;2023-07-02T08:58:32;26.97;;;17.03;;
12155;SDS011;6141;49.092;8.516;2023-07-02T09:01:08;22.67;;;15.73;;
12155;SDS011;6141;49.092;8.516;2023-07-02T09:03:37;24.87;;;16.97;;
12155;SDS011;6141;49.092;8.516;2023-07-02T09:06:07;22.23;;;15.50;;
12155;SDS011;6141;49.092;8.516;2023-07-02T09:08:36;22.67;;;15.80;;
12155;SDS011;6141;49.092;8.516;2023-07-02T09:11:06;25.80;;;17.10;;
12155;SDS011;6141;49.092;8.516;2023-07-02T09:13:41;23.07;;;16.80;;
12155;SDS011;6141;49.092;8.516;2023-07-02T09:16:25;24.33;;;16.80;;
12155;SDS011;6141;49.092;8.516;2023-07-02T09:18:56;23.57;;;16.87;;
12155;SDS011;6141;49.092;8.516;2023-07-02T09:21:37;22.47;;;16.10;;
12155;SDS011;6141;49.092;8.516;2023-07-02T09:24:17;24.23;;;16.80;;
12155;SDS011;6141;49.092;8.516;2023-07-02T09:26:46;23.00;;;16.83;;
12155;SDS011;6141;49.092;8.516;2023-07-02T09:29:17;27.67;;;17.37;;
12155;SDS011;6141;49.092;8.516;2023-07-02T09:31:47;23.70;;;16.70;;
12155;SDS011;6141;49.092;8.516;2023-07-02T09:34:35;24.70;;;16.67;;
12155;SDS011;6141;49.092;8.516;2023-07-02T09:37:05;23.43;;;16.60;;
12155;SDS011;6141;49.092;8.516;2023-07-02T09:39:33;23.97;;;16.27;;
12155;SDS011;6141;49.092;8.516;2023-07-02T09:42:05;21.53;;;16.13;;
12155;SDS011;6141;49.092;8.516;2023-07-02T09:44:34;22.13;;;16.00;;
12155;SDS011;6141;49.092;8.516;2023-07-02T09:47:05;22.70;;;17.17;;
12155;SDS011;6141;49.092;8.516;2023-07-02T09:49:35;26.77;;;17.63;;
12155;SDS011;6141;49.092;8.516;2023-07-02T09:52:04;22.07;;;16.20;;
12155;SDS011;6141;49.092;8.516;2023-07-02T09:54:34;23.03;;;17.07;;
12155;SDS011;6141;49.092;8.516;2023-07-02T09:57:03;23.13;;;16.67;;
12155;SDS011;6141;49.092;8.516;2023-07-02T09:59:34;22.00;;;16.67;;
12155;SDS011;6141;49.092;8.516;2023-07-02T10:02:03;24.23;;;16.57;;
12155;SDS011;6141;49.092;8.516;2023-07-02T10:04:39;24.47;;;17.03;;
12155;SDS011;6141;49.092;8.516;2023-07-02T10:07:28;28.53;;;17.27;;
12155;SDS011;6141;49.092;8.516;2023-07-02T10:09:57;23.60;;;16.20;;
12155;SDS011;6141;49.092;8.516;2023-07-02T10:12:26;24.70;;;16.87;;
12155;SDS011;6141;49.092;8.516;2023-07-02T10:14:57;23.60;;;16.17;;
12155;SDS011;6141;49.092;8.516;2023-07-02T10:17:27;24.43;;;17.27;;
12155;SDS011;6141;49.092;8.516;2023-07-02T10:19:58;22.53;;;16.13;;
12155;SDS011;6141;49.092;8.516;2023-07-02T10:22:27;22.23;;;16.77;;
12155;SDS011;6141;49.092;8.516;2023-07-02T10:24:56;27.20;;;16.43;;
12155;SDS011;6141;49.092;8.516;2023-07-02T10:27:33;27.37;;;17.57;;
12155;SDS011;6141;49.092;8.516;2023-07-02T10:30:02;24.10;;;16.57;;
12155;SDS011;6141;49.092;8.516;2023-07-02T10:32:33;24.63;;;15.90;;
12155;SDS011;6141;49.092;8.516;2023-07-02T10:35:02;22.33;;;15.27;;
12155;SDS011;6141;49.092;8.516;2023-07-02T10:37:41;20.80;;;15.20;;
12155;SDS011;6141;49.092;8.516;2023-07-02T10:40:09;20.53;;;15.77;;
12155;SDS011;6141;49.092;8.516;2023-07-02T10:42:45;21.23;;;15.37;;
12155;SDS011;6141;49.092;8.516;2023-07-02T10:45:14;19.83;;;15.10;;
12155;SDS011;6141;49.092;8.516;2023-07-02T10:50:50;25.70;;;16.60;;
12155;SDS011;6141;49.092;8.516;2023-07-02T10:53:19;21.50;;;15.63;;
12155;SDS011;6141;49.092;8.516;2023-07-02T10:55:53;22.90;;;14.77;;
12155;SDS011;6141;49.092;8.516;2023-07-02T10:58:23;20.20;;;14.60;;
12155;SDS011;6141;49.092;8.516;2023-07-02T11:00:51;24.00;;;16.27;;
12155;SDS011;6141;49.092;8.516;2023-07-02T11:03:20;21.60;;;15.63;;
12155;SDS011;6141;49.092;8.516;2023-07-02T11:05:51;18.53;;;14.50;;
12155;SDS011;6141;49.092;8.516;2023-07-02T11:08:21;23.73;;;15.40;;
12155;SDS011;6141;49.092;8.516;2023-07-02T11:10:51;24.93;;;15.37;;
12155;SDS011;6141;49.092;8.516;2023-07-02T11:13:32;20.00;;;15.13;;
12155;SDS011;6141;49.092;8.516;2023-07-02T11:16:00;20.93;;;15.30;;
12155;SDS011;6141;49.092;8.516;2023-07-02T11:18:30;23.90;;;16.63;;
12155;SDS011;6141;49.092;8.516;2023-07-02T11:21:08;30.13;;;18.10;;
12155;SDS011;6141;49.092;8.516;2023-07-02T11:23:37;24.53;;;16.93;;
12155;SDS011;6141;49.092;8.516;2023-07-02T11:26:06;22.77;;;15.33;;
12155;SDS011;6141;49.092;8.516;2023-07-02T11:28:34;20.63;;;15.53;;
12155;SDS011;6141;49.092;8.516;2023-07-02T11:31:04;24.83;;;15.77;;
12155;SDS011;6141;49.092;8.516;2023-07-02T11:33:34;21.93;;;15.23;;
12155;SDS011;6141;49.092;8.516;2023-07-02T11:36:04;40.53;;;16.10;;
12155;SDS011;6141;49.092;8.516;2023-07-02T11:38:33;22.27;;;14.50;;
12155;SDS011;6141;49.092;8.516;2023-07-02T11:41:02;21.17;;;14.93;;
12155;SDS011;6141;49.092;8.516;2023-07-02T11:43:30;19.87;;;14.67;;
12155;SDS011;6141;49.092;8.516;2023-07-02T11:45:58;24.63;;;15.93;;
12155;SDS011;6141;49.092;8.516;2023-07-02T11:48:26;21.00;;;15.37;;
12155;SDS011;6141;49.092;8.516;2023-07-02T11:50:54;19.00;;;15.17;;
12155;SDS011;6141;49.092;8.516;2023-07-02T11:53:24;19.17;;;14.60;;
12155;SDS011;6141;49.092;8.516;2023-07-02T11:55:52;20.33;;;15.40;;
12155;SDS011;6141;49.092;8.516;2023-07-02T11:58:20;22.27;;;15.93;;
12155;SDS011;6141;49.092;8.516;2023-07-02T12:00:48;20.73;;;15.63;;
12155;SDS011;6141;49.092;8.516;2023-07-02T12:03:16;22.07;;;15.50;;
12155;SDS011;6141;49.092;8.516;2023-07-02T12:05:45;23.13;;;16.03;;
12155;SDS011;6141;49.092;8.516;2023-07-02T12:08:13;20.27;;;13.50;;
12155;SDS011;6141;49.092;8.516;2023-07-02T12:10:43;22.33;;;16.13;;
12155;SDS011;6141;49.092;8.516;2023-07-02T12:13:11;22.30;;;16.03;;
12155;SDS011;6141;49.092;8.516;2023-07-02T12:15:39;20.13;;;15.37;;
12155;SDS011;6141;49.092;8.516;2023-07-02T12:18:07;21.03;;;15.47;;
12155;SDS011;6141;49.092;8.516;2023-07-02T12:20:36;19.83;;;15.40;;
12155;SDS011;6141;49.092;8.516;2023-07-02T12:23:04;19.27;;;14.97;;
12155;SDS011;6141;49.092;8.516;2023-07-02T12:25:32;19.37;;;15.07;;
12155;SDS011;6141;49.092;8.516;2023-07-02T12:28:02;22.57;;;14.67;;
12155;SDS011;6141;49.092;8.516;2023-07-02T12:30:31;20.07;;;15.37;;
12155;SDS011;6141;49.092;8.516;2023-07-02T12:32:59;22.20;;;16.53;;
12155;SDS011;6141;49.092;8.516;2023-07-02T12:35:27;20.77;;;14.93;;
12155;SDS011;6141;49.092;8.516;2023-07-02T12:37:56;21.13;;;14.47;;
12155;SDS011;6141;49.092;8.516;2023-07-02T12:40:24;21.40;;;14.83;;
12155;SDS011;6141;49.092;8.516;2023-07-02T12:42:52;25.80;;;14.60;;
12155;SDS011;6141;49.092;8.516;2023-07-02T12:45:21;22.20;;;15.90;;
12155;SDS011;6141;49.092;8.516;2023-07-02T12:47:50;21.57;;;15.10;;
12155;SDS011;6141;49.092;8.516;2023-07-02T12:50:18;23.37;;;15.17;;
12155;SDS011;6141;49.092;8.516;2023-07-02T12:52:46;20.33;;;15.10;;
12155;SDS011;6141;49.092;8.516;2023-07-02T12:55:14;20.47;;;14.53;;
12155;SDS011;6141;49.092;8.516;2023-07-02T12:57:42;18.63;;;13.87;;
12155;SDS011;6141;49.092;8.516;2023-07-02T13:00:11;21.83;;;14.93;;
12155;SDS011;6141;49.092;8.516;2023-07-02T13:02:41;19.97;;;15.20;;
12155;SDS011;6141;49.092;8.516;2023-07-02T13:05:27;20.20;;;14.83;;
12155;SDS011;6141;49.092;8.516;2023-07-02T13:07:56;18.30;;;13.63;;
12155;SDS011;6141;49.092;8.516;2023-07-02T13:10:24;21.63;;;14.87;;
12155;SDS011;6141;49.092;8.516;2023-07-02T13:12:52;20.03;;;14.17;;
12155;SDS011;6141;49.092;8.516;2023-07-02T13:15:23;17.87;;;14.43;;
12155;SDS011;6141;49.092;8.516;2023-07-02T13:17:52;21.27;;;14.77;;
12155;SDS011;6141;49.092;8.516;2023-07-02T13:20:20;19.13;;;15.10;;
12155;SDS011;6141;49.092;8.516;2023-07-02T13:22:48;23.27;;;14.90;;
12155;SDS011;6141;49.092;8.516;2023-07-02T13:25:16;20.27;;;15.07;;
12155;SDS011;6141;49.092;8.516;2023-07-02T13:27:44;22.00;;;15.23;;
12155;SDS011;6141;49.092;8.516;2023-07-02T13:30:12;17.67;;;13.47;;
12155;SDS011;6141;49.092;8.516;2023-07-02T13:32:40;18.40;;;13.53;;
12155;SDS011;6141;49.092;8.516;2023-07-02T13:35:10;17.17;;;12.67;;
12155;SDS011;6141;49.092;8.516;2023-07-02T13:37:38;20.50;;;14.80;;
12155;SDS011;6141;49.092;8.516;2023-07-02T13:40:06;20.53;;;13.47;;
12155;SDS011;6141;49.092;8.516;2023-07-02T13:42:38;20.23;;;14.90;;
12155;SDS011;6141;49.092;8.516;2023-07-02T13:45:08;16.67;;;12.57;;
12155;SDS011;6141;49.092;8.516;2023-07-02T13:47:37;17.80;;;13.37;;
12155;SDS011;6141;49.092;8.516;2023-07-02T13:50:06;20.10;;;13.80;;
12155;SDS011;6141;49.092;8.516;2023-07-02T13:52:35;17.90;;;12.90;;
12155;SDS011;6141;49.092;8.516;2023-07-02T13:55:03;19.07;;;14.07;;
12155;SDS011;6141;49.092;8.516;2023-07-02T13:57:32;17.93;;;12.90;;
12155;SDS011;6141;49.092;8.516;2023-07-02T14:00:02;18.50;;;13.63;;
12155;SDS011;6141;49.092;8.516;2023-07-02T14:02:31;22.33;;;15.10;;
12155;SDS011;6141;49.092;8.516;2023-07-02T14:04:59;19.07;;;13.57;;
12155;SDS011;6141;49.092;8.516;2023-07-02T14:07:28;19.10;;;13.33;;
12155;SDS011;6141;49.092;8.516;2023-07-02T14:09:56;20.27;;;13.93;;
12155;SDS011;6141;49.092;8.516;2023-07-02T14:12:24;19.10;;;13.07;;
12155;SDS011;6141;49.092;8.516;2023-07-02T14:14:52;17.00;;;12.97;;
12155;SDS011;6141;49.092;8.516;2023-07-02T14:17:21;19.80;;;13.60;;
12155;SDS011;6141;49.092;8.516;2023-07-02T14:19:52;18.27;;;13.37;;
12155;SDS011;6141;49.092;8.516;2023-07-02T14:22:20;18.53;;;13.23;;
12155;SDS011;6141;49.092;8.516;2023-07-02T14:24:48;18.20;;;13.10;;
12155;SDS011;6141;49.092;8.516;2023-07-02T14:27:16;21.20;;;13.23;;
12155;SDS011;6141;49.092;8.516;2023-07-02T14:29:44;18.63;;;13.70;;
12155;SDS011;6141;49.092;8.516;2023-07-02T14:32:14;16.87;;;13.30;;
12155;SDS011;6141;49.092;8.516;2023-07-02T14:34:43;17.23;;;13.50;;
12155;SDS011;6141;49.092;8.516;2023-07-02T14:37:12;18.00;;;12.67;;
12155;SDS011;6141;49.092;8.516;2023-07-02T14:39:40;19.20;;;12.87;;
12155;SDS011;6141;49.092;8.516;2023-07-02T14:42:26;15.50;;;12.03;;
12155;SDS011;6141;49.092;8.516;2023-07-02T14:44:54;17.77;;;12.33;;
12155;SDS011;6141;49.092;8.516;2023-07-02T14:47:23;18.23;;;12.87;;
12155;SDS011;6141;49.092;8.516;2023-07-02T14:49:52;18.83;;;13.13;;
12155;SDS011;6141;49.092;8.516;2023-07-02T14:52:20;20.13;;;12.87;;
12155;SDS011;6141;49.092;8.516;2023-07-02T14:54:48;18.80;;;12.80;;
12155;SDS011;6141;49.092;8.516;2023-07-02T14:57:17;16.90;;;12.63;;
12155;SDS011;6141;49.092;8.516;2023-07-02T14:59:45;18.13;;;13.07;;
12155;SDS011;6141;49.092;8.516;2023-07-02T15:02:16;18.23;;;12.60;;